Map

Track Data

SID SEASON NUMBER BASIN SUBBASIN NAME ISO_TIME NATURE LAT LON WMO_WIND WMO_PRES WMO_AGENCY TRACK_TYPE DIST2LAND LANDFALL IFLAG USA_AGENCY USA_ATCF_ID USA_LAT USA_LON USA_RECORD USA_STATUS USA_WIND USA_PRES USA_SSHS USA_R34_NE USA_R34_SE USA_R34_SW USA_R34_NW USA_R50_NE USA_R50_SE USA_R50_SW USA_R50_NW USA_R64_NE USA_R64_SE USA_R64_SW USA_R64_NW USA_POCI USA_ROCI USA_RMW USA_EYE TOKYO_LAT TOKYO_LON TOKYO_GRADE TOKYO_WIND TOKYO_PRES TOKYO_R50_DIR TOKYO_R50_LONG TOKYO_R50_SHORT TOKYO_R30_DIR TOKYO_R30_LONG TOKYO_R30_SHORT TOKYO_LAND CMA_LAT CMA_LON CMA_CAT CMA_WIND CMA_PRES HKO_LAT HKO_LON HKO_CAT HKO_WIND HKO_PRES NEWDELHI_LAT NEWDELHI_LON NEWDELHI_GRADE NEWDELHI_WIND NEWDELHI_PRES NEWDELHI_CI NEWDELHI_DP NEWDELHI_POCI REUNION_LAT REUNION_LON REUNION_TYPE REUNION_WIND REUNION_PRES REUNION_TNUM REUNION_CI REUNION_RMW REUNION_R34_NE REUNION_R34_SE REUNION_R34_SW REUNION_R34_NW REUNION_R50_NE REUNION_R50_SE REUNION_R50_SW REUNION_R50_NW REUNION_R64_NE REUNION_R64_SE REUNION_R64_SW REUNION_R64_NW BOM_LAT BOM_LON BOM_TYPE BOM_WIND BOM_PRES BOM_TNUM BOM_CI BOM_RMW BOM_R34_NE BOM_R34_SE BOM_R34_SW BOM_R34_NW BOM_R50_NE BOM_R50_SE BOM_R50_SW BOM_R50_NW BOM_R64_NE BOM_R64_SE BOM_R64_SW BOM_R64_NW BOM_ROCI BOM_POCI BOM_EYE BOM_POS_METHOD BOM_PRES_METHOD NADI_LAT NADI_LON NADI_CAT NADI_WIND NADI_PRES WELLINGTON_LAT WELLINGTON_LON WELLINGTON_WIND WELLINGTON_PRES DS824_LAT DS824_LON DS824_STAGE DS824_WIND DS824_PRES TD9636_LAT TD9636_LON TD9636_STAGE TD9636_WIND TD9636_PRES TD9635_LAT TD9635_LON TD9635_WIND TD9635_PRES TD9635_ROCI NEUMANN_LAT NEUMANN_LON NEUMANN_CLASS NEUMANN_WIND NEUMANN_PRES MLC_LAT MLC_LON MLC_CLASS MLC_WIND MLC_PRES USA_GUST BOM_GUST BOM_GUST_PER REUNION_GUST REUNION_GUST_PER USA_SEAHGT USA_SEARAD_NE USA_SEARAD_SE USA_SEARAD_SW USA_SEARAD_NW STORM_SPEED STORM_DIR
1992358S07161 1993 132 SP MM KINA 1992-12-23 06:00:00 TS -6.70000 161.300 main 198 198 O___________O_ jtwc_sh SH071993 -6.70000 161.300 15 -1 -6.70000 161.300 TC 15 8 90
1992358S07161 1993 132 SP MM KINA 1992-12-23 09:00:00 TS -6.70256 161.700 main 214 214 P___________P_ SH071993 -6.70256 161.700 15 -1 -6.70256 161.700 TC 15 8 90
1992358S07161 1993 132 SP MM KINA 1992-12-23 12:00:00 TS -6.70000 162.100 main 238 238 O___________O_ jtwc_sh SH071993 -6.70000 162.100 15 -1 -6.70000 162.100 TC 15 8 89
1992358S07161 1993 132 SP MM KINA 1992-12-23 15:00:00 TS -6.69247 162.500 main 267 267 P___________P_ SH071993 -6.69247 162.500 15 -1 -6.69247 162.500 TC 15 8 90
1992358S07161 1993 132 SP MM KINA 1992-12-23 18:00:00 TS -6.70000 162.900 main 298 298 O___________O_ jtwc_sh SH071993 -6.70000 162.900 15 -1 -6.70000 162.900 TC 15 8 94
1992358S07161 1993 132 SP MM KINA 1992-12-23 21:00:00 TS -6.74249 163.307 main 331 331 P___________P_ SH071993 -6.74249 163.307 17 -1 -6.74249 163.307 TC 17 8 97
1992358S07161 1993 132 SP MM KINA 1992-12-24 00:00:00 TS -6.80000 163.700 main 359 359 O___________O_ jtwc_sh SH071993 -6.80000 163.700 20 -1 -6.80000 163.700 TC 20 8 98
1992358S07161 1993 132 SP MM KINA 1992-12-24 03:00:00 TS -6.84997 164.065 main 396 391 P___________P_ SH071993 -6.84997 164.065 20 -1 -6.84997 164.065 TC 20 7 98
1992358S07161 1993 132 SP MM KINA 1992-12-24 06:00:00 TS -6.90000 164.400 main 420 420 O___________O_ jtwc_sh SH071993 -6.90000 164.400 20 -1 -6.90000 164.400 TC 20 6 98
1992358S07161 1993 132 SP MM KINA 1992-12-24 09:00:00 TS -6.93497 164.708 main 450 450 P___________P_ SH071993 -6.93497 164.708 20 -1 -6.93497 164.708 TC 20 6 100
1992358S07161 1993 132 SP MM KINA 1992-12-24 12:00:00 TS -7.00000 165.000 main 476 476 O___________O_ jtwc_sh SH071993 -7.00000 165.000 20 -1 -7.00000 165.000 TC 20 6 110
1992358S07161 1993 132 SP MM KINA 1992-12-24 15:00:00 TS -7.14247 165.292 main 499 494 P___________P_ SH071993 -7.14247 165.292 20 -1 -7.14247 165.292 TC 20 7 117
1992358S07161 1993 132 SP MM KINA 1992-12-24 18:00:00 TS -7.30000 165.600 main 519 519 O___________O_ jtwc_sh SH071993 -7.30000 165.600 20 -1 -7.30000 165.600 TC 20 7 112
1992358S07161 1993 132 SP MM KINA 1992-12-24 21:00:00 TS -7.40749 165.943 main 541 541 P___________P_ SH071993 -7.40749 165.943 20 -1 -7.40749 165.943 TC 20 7 106
1992358S07161 1993 132 SP MM KINA 1992-12-25 00:00:00 TS -7.50000 166.300 main 567 567 O___________O_ jtwc_sh SH071993 -7.50000 166.300 20 -1 -7.50000 166.300 TC 20 7 104
1992358S07161 1993 132 SP MM KINA 1992-12-25 03:00:00 TS -7.58499 166.658 main 595 595 P___________P_ SH071993 -7.58499 166.658 20 -1 -7.58499 166.658 TC 20 7 106
1992358S07161 1993 132 SP MM KINA 1992-12-25 06:00:00 TS -7.70000 167.000 main 616 616 O___________O_ jtwc_sh SH071993 -7.70000 167.000 20 -1 -7.70000 167.000 TC 20 7 116
1992358S07161 1993 132 SP MM KINA 1992-12-25 09:00:00 TS -7.89246 167.307 main 632 632 P___________P_ SH071993 -7.89246 167.307 20 -1 -7.89246 167.307 TC 20 7 124
1992358S07161 1993 132 SP MM KINA 1992-12-25 12:00:00 TS -8.10000 167.600 main 650 650 O___________O_ jtwc_sh SH071993 -8.10000 167.600 20 -1 -8.10000 167.600 TC 20 7 122
1992358S07161 1993 132 SP MM KINA 1992-12-25 15:00:00 TS -8.25749 167.908 main 670 670 P___________P_ SH071993 -8.25749 167.908 22 -1 -8.25749 167.908 TC 22 7 117
1992358S07161 1993 132 SP MM KINA 1992-12-25 18:00:00 TS -8.40000 168.200 main 696 696 O___________O_ jtwc_sh SH071993 -8.40000 168.200 25 -1 -8.40000 168.200 TC 25 6 118
1992358S07161 1993 132 SP MM KINA 1992-12-25 21:00:00 TS -8.54247 168.458 main 723 706 P___________P_ SH071993 -8.54247 168.458 25 -1 -8.54247 168.458 TC 25 6 121
1992358S07161 1993 132 SP MM KINA 1992-12-26 00:00:00 TS -8.70000 168.700 main 709 696 O___________O_ jtwc_sh SH071993 -8.70000 168.700 25 -1 -8.70000 168.700 TC 25 6 125
1992358S07161 1993 132 SP MM KINA 1992-12-26 03:00:00 TS -8.89250 168.958 main 700 683 P___________P_ SH071993 -8.89250 168.958 27 -1 -8.89250 168.958 TC 27 6 129
1992358S07161 1993 132 SP MM KINA 1992-12-26 06:00:00 TS -9.08889 169.178 main 688 672 O_______O___O_ jtwc_sh SH071993 -9.10000 169.200 30 -1 -9.00000 169.000 25 999 -9.10000 169.200 TC 30 6 134
1992358S07161 1993 132 SP MM KINA 1992-12-26 09:00:00 TS -9.28499 169.376 main 677 662 P_______P___P_ SH071993 -9.29248 169.408 30 -1 -9.25503 169.247 27 998 -9.29248 169.408 TC 30 6 137
1992358S07161 1993 132 SP MM KINA 1992-12-26 12:00:00 TS -9.50000 169.573 main 667 653 O_______O___O_ jtwc_sh SH071993 -9.50000 169.600 30 -1 -9.50000 169.500 30 997 -9.50000 169.600 TC 30 6 138
1992358S07161 1993 132 SP MM KINA 1992-12-26 15:00:00 TS -9.74000 169.791 main 659 642 P_______P___P_ SH071993 -9.74250 169.808 32 -1 -9.73500 169.758 30 997 -9.74250 169.808 TC 32 7 140
1992358S07161 1993 132 SP MM KINA 1992-12-26 18:00:00 TS -10.0000 170.000 main 642 624 O_______O___O_ jtwc_sh SH071993 -10.0000 170.000 35 0 -10.0000 170.000 30 997 -10.0000 170.000 TC 35 7 144
1992358S07161 1993 132 SP MM KINA 1992-12-26 21:00:00 TS -10.2783 170.187 main 624 602 P_______P___P_ SH071993 -10.2425 170.165 37 -1 -10.3500 170.230 30 997 -10.2425 170.165 TC 37 7 150
1992358S07161 1993 132 SP MM KINA 1992-12-27 00:00:00 TS -10.5667 170.333 main 602 590 O_______O___O_ jtwc_sh SH071993 -10.5000 170.300 40 0 -10.7000 170.400 30 997 -10.5000 170.300 TC 40 6 157
1992358S07161 1993 132 SP MM KINA 1992-12-27 03:00:00 TS -10.8575 170.434 main 582 571 P_______P___P_ SH071993 -10.8000 170.415 42 -1 -10.9725 170.473 30 997 -10.8000 170.415 TC 42 6 164
1992358S07161 1993 132 SP MM KINA 1992-12-27 06:00:00 TS -11.1333 170.500 main 571 545 O_______O___O_ jtwc_sh SH071993 -11.1000 170.500 XX 45 -5 -11.2000 170.500 30 997 -11.1000 170.500 TC 45 5 167
1992358S07161 1993 132 SP MM KINA 1992-12-27 09:00:00 TS -11.3742 170.545 main 545 537 P_______P___P_ SH071993 -11.3575 170.550 XX 47 -5 -11.4075 170.535 32 996 -11.3575 170.550 TC 47 5 168
1992358S07161 1993 132 SP MM KINA 1992-12-27 12:00:00 TS -11.6000 170.600 main 537 529 O_______O___O_ jtwc_sh SH071993 -11.6000 170.600 XX 50 -5 -11.6000 170.600 35 995 -11.6000 170.600 TC 50 5 161
1992358S07161 1993 132 SP MM KINA 1992-12-27 15:00:00 TS -11.8408 170.707 main 529 515 P_______P___P_ SH071993 -11.8575 170.685 XX 52 -5 -11.8075 170.750 37 992 -11.8575 170.685 TC 52 5 154
1992358S07161 1993 132 SP MM KINA 1992-12-27 18:00:00 TS -12.0667 170.833 main 515 515 O_______O___O_ jtwc_sh SH071993 -12.1000 170.800 XX 55 -5 -12.0000 170.900 40 990 -12.1000 170.800 TC 55 5 150
1992358S07161 1993 132 SP MM KINA 1992-12-27 21:00:00 TS -12.2550 170.945 main 510 510 P_______P___P_ SH071993 -12.3075 170.943 XX 57 -5 -12.1500 170.950 42 988 -12.3075 170.943 TC 57 4 148
1992358S07161 1993 132 SP MM KINA 1992-12-28 00:00:00 TS -12.4333 171.067 main 521 508 O_______O___O_ jtwc_sh SH071993 -12.5000 171.100 XX 60 -5 -12.3000 171.000 45 987 -12.5000 171.100 TC 60 5 146
1992358S07161 1993 132 SP MM KINA 1992-12-28 03:00:00 TS -12.6333 171.204 main 518 512 P_______P___P_ SH071993 -12.7075 171.250 XX 62 -5 -12.4850 171.113 47 986 -12.7075 171.250 TC 62 5 144
1992358S07161 1993 132 SP MM KINA 1992-12-28 06:00:00 TS -12.8333 171.367 main 525 520 O_______O___O_ jtwc_sh SH071993 -12.9000 171.400 XX 65 -5 -12.7000 171.300 50 985 -12.9000 171.400 TC 65 5 138
1992358S07161 1993 132 SP MM KINA 1992-12-28 09:00:00 TS -13.0242 171.562 main 534 530 P_______P___P_ SH071993 -13.0575 171.550 XX 70 -5 -12.9576 171.585 52 982 -13.0575 171.550 TC 70 5 133
1992358S07161 1993 132 SP MM KINA 1992-12-28 12:00:00 TS -13.2000 171.767 main 545 541 O_______O___O_ jtwc_sh SH071993 -13.2000 171.700 XX 75 -5 -13.2000 171.900 55 980 -13.2000 171.700 TC 75 5 130
1992358S07161 1993 132 SP MM KINA 1992-12-28 15:00:00 TS -13.3500 171.960 main 561 556 P_______P___P_ SH071993 -13.3500 171.850 XX 82 -5 -13.3500 172.180 57 977 -13.3500 171.850 TC 82 5 130
1992358S07161 1993 132 SP MM KINA 1992-12-28 18:00:00 TS -13.5000 172.133 main 558 558 O_______O___O_ jtwc_sh SH071993 -13.5000 172.000 XX 90 -5 -13.5000 172.400 60 975 -13.5000 172.000 TC 90 5 137
1992358S07161 1993 132 SP MM KINA 1992-12-28 21:00:00 TS -13.6833 172.279 main 564 558 P_______P___P_ SH071993 -13.6500 172.150 XX 97 -5 -13.7500 172.538 62 972 -13.6500 172.150 TC 97 5 145
1992358S07161 1993 132 SP MM KINA 1992-12-29 00:00:00 TS -13.8667 172.400 main 562 562 O_______O___O_ jtwc_sh SH071993 -13.8000 172.300 XX 105 -5 -14.0000 172.600 65 970 -13.8000 172.300 TC 105 4 147
1992358S07161 1993 132 SP MM KINA 1992-12-29 03:00:00 TS -14.0317 172.515 main 566 561 P_______P___P_ SH071993 -13.9575 172.465 XX 112 -5 -14.1800 172.615 67 967 -13.9575 172.465 TC 112 4 147
1992358S07161 1993 132 SP MM KINA 1992-12-29 06:00:00 TS -14.1667 172.600 main 566 561 O_______O___O_ jtwc_sh SH071993 -14.1000 172.600 XX 120 -5 -14.3000 172.600 70 965 -14.1000 172.600 TC 120 3 151
1992358S07161 1993 132 SP MM KINA 1992-12-29 09:00:00 TS -14.2575 172.646 main 561 561 P_______P___P_ SH071993 -14.2075 172.673 XX 120 -5 -14.3575 172.593 72 962 -14.2075 172.673 TC 120 2 157
1992358S07161 1993 132 SP MM KINA 1992-12-29 12:00:00 TS -14.3333 172.667 main 571 566 O_______O___O_ jtwc_sh SH071993 -14.3000 172.700 XX 120 -5 -14.4000 172.600 75 960 -14.3000 172.700 TC 120 2 168
1992358S07161 1993 132 SP MM KINA 1992-12-29 15:00:00 TS -14.4308 172.693 main 566 562 P_______P___P_ SH071993 -14.4000 172.715 XX 120 -5 -14.4925 172.650 75 960 -14.4000 172.715 TC 120 2 167
1992358S07161 1993 132 SP MM KINA 1992-12-29 18:00:00 TS -14.5333 172.700 main 562 558 O_______O___O_ jtwc_sh SH071993 -14.5000 172.700 XX 120 -5 -14.6000 172.700 75 960 -14.5000 172.700 TC 120 2 0
1992358S07161 1993 132 SP MM KINA 1992-12-29 21:00:00 TS -14.6408 172.672 main 558 544 P_______P___P_ SH071993 -14.6075 172.658 XX 120 -5 -14.7075 172.700 75 960 -14.6075 172.658 TC 120 2 200
1992358S07161 1993 132 SP MM KINA 1992-12-30 00:00:00 TS -14.7333 172.633 main 544 541 O_______O___O_ jtwc_sh SH071993 -14.7000 172.600 XX 120 -5 -14.8000 172.700 75 960 -14.7000 172.600 TC 120 2 199
1992358S07161 1993 132 SP MM KINA 1992-12-30 03:00:00 TS -14.7908 172.617 main 541 541 P_______P___P_ SH071993 -14.7575 172.550 XX 120 -5 -14.8575 172.750 75 960 -14.7575 172.550 TC 120 1 197
1992358S07161 1993 132 SP MM KINA 1992-12-30 06:00:00 TS -14.8333 172.600 main 541 537 O_______O___O_ jtwc_sh SH071993 -14.8000 172.500 XX 120 -5 -14.9000 172.800 75 960 -14.8000 172.500 TC 120 1 211
1992358S07161 1993 132 SP MM KINA 1992-12-30 09:00:00 TS -14.8808 172.564 main 537 527 P_______P___P_ SH071993 -14.8500 172.443 XX 120 -5 -14.9425 172.808 75 960 -14.8500 172.443 TC 120 1 213
1992358S07161 1993 132 SP MM KINA 1992-12-30 12:00:00 TS -14.9333 172.533 main 527 524 O_______O___O_ jtwc_sh SH071993 -14.9000 172.400 XX 120 -5 -15.0000 172.800 75 960 -14.9000 172.400 TC 120 1 198
1992358S07161 1993 132 SP MM KINA 1992-12-30 15:00:00 TS -15.0000 172.523 main 524 520 P_______P___P_ SH071993 -14.9500 172.385 XX 117 -5 -15.1000 172.800 75 960 -14.9500 172.385 TC 117 1 0
1992358S07161 1993 132 SP MM KINA 1992-12-30 18:00:00 TS -15.0667 172.533 main 520 520 O_______O___O_ jtwc_sh SH071993 -15.0000 172.400 XX 115 -5 -15.2000 172.800 75 960 -15.0000 172.400 TC 115 1 162
1992358S07161 1993 132 SP MM KINA 1992-12-30 21:00:00 TS -15.1192 172.559 main 531 528 P_______P___P_ SH071993 -15.0500 172.443 XX 110 -5 -15.2575 172.793 72 962 -15.0500 172.443 TC 110 1 147
1992358S07161 1993 132 SP MM KINA 1992-12-31 00:00:00 TS -15.1667 172.600 main 528 528 O_______O___O_ jtwc_sh SH071993 -15.1000 172.500 XX 105 -5 -15.3000 172.800 70 965 -15.1000 172.500 TC 105 1 141
1992358S07161 1993 132 SP MM KINA 1992-12-31 03:00:00 TS -15.2117 172.643 main 528 528 P_______P___P_ SH071993 -15.1425 172.543 XX 102 -5 -15.3500 172.842 70 965 -15.1425 172.543 TC 102 1 137
1992358S07161 1993 132 SP MM KINA 1992-12-31 06:00:00 TS -15.2667 172.700 main 536 536 O_______O___O_ jtwc_sh SH071993 -15.2000 172.600 XX 100 -5 -15.4000 172.900 70 965 -15.2000 172.600 TC 100 2 138
1992358S07161 1993 132 SP MM KINA 1992-12-31 09:00:00 TS -15.3425 172.766 main 546 539 P_______P___P_ SH071993 -15.2925 172.685 XX 97 -5 -15.4425 172.928 70 965 -15.2925 172.685 TC 97 2 135
1992358S07161 1993 132 SP MM KINA 1992-12-31 12:00:00 TS -15.4333 172.867 main 539 524 O_______O___O_ jtwc_sh SH071993 -15.4000 172.800 XX 95 -5 -15.5000 173.000 70 965 -15.4000 172.800 TC 95 3 129
1992358S07161 1993 132 SP MM KINA 1992-12-31 15:00:00 TS -15.5333 173.011 main 524 500 P_______P___P_ SH071993 -15.5000 172.928 XX 92 -5 -15.6000 173.177 70 965 -15.5000 172.928 TC 92 4 122
1992358S07161 1993 132 SP MM KINA 1992-12-31 18:00:00 TS -15.6333 173.200 main 500 476 O_______O___O_ jtwc_sh SH071993 -15.6000 173.100 XX 90 -5 -15.7000 173.400 70 965 -15.6000 173.100 TC 90 4 116
1992358S07161 1993 132 SP MM KINA 1992-12-31 21:00:00 TS -15.7266 173.416 main 476 442 P_______P___P_ SH071993 -15.7075 173.327 XX 87 -5 -15.7650 173.593 70 965 -15.7075 173.327 TC 87 5 110
1992358S07161 1993 132 SP MM KINA 1993-01-01 00:00:00 TS -15.8000 173.667 main 442 423 O_______O___O_ jtwc_sh SH071993 -15.8000 173.600 XX 85 -5 -15.8000 173.800 70 965 -15.8000 173.600 TC 85 5 102
1992358S07161 1993 132 SP MM KINA 1993-01-01 03:00:00 TS -15.8358 173.935 main 423 390 P_______P___P_ SH071993 -15.8575 173.885 XX 85 -5 -15.7925 174.035 70 965 -15.8575 173.885 TC 85 5 97
1992358S07161 1993 132 SP MM KINA 1993-01-01 06:00:00 TS -15.8667 174.233 main 390 362 O_______O___O_ jtwc_sh SH071993 -15.9000 174.200 XX 85 -5 -15.8000 174.300 70 965 -15.9000 174.200 TC 85 6 99
1992358S07161 1993 132 SP MM KINA 1993-01-01 09:00:00 TS -15.9308 174.559 main 353 320 P_______P___P_ SH071993 -15.9500 174.543 XX 85 -5 -15.8925 174.592 70 965 -15.9500 174.543 TC 85 7 102
1992358S07161 1993 132 SP MM KINA 1993-01-01 12:00:00 TS -16.0000 174.900 main 320 294 O_______O___O_ jtwc_sh SH071993 -16.0000 174.900 XX 85 -5 -16.0000 174.900 70 965 -16.0000 174.900 TC 85 7 100
1992358S07161 1993 132 SP MM KINA 1993-01-01 15:00:00 TS -16.0499 175.231 main 294 262 P_______P___P_ SH071993 -16.0424 175.243 XX 82 -5 -16.0650 175.208 70 965 -16.0424 175.243 TC 82 6 99
1992358S07161 1993 132 SP MM KINA 1993-01-01 18:00:00 TS -16.1000 175.567 main 254 231 O_______O___O_ jtwc_sh SH071993 -16.1000 175.600 XX 80 -5 -16.1000 175.500 70 965 -16.1000 175.600 TC 80 6 99
1992358S07161 1993 132 SP MM KINA 1993-01-01 21:00:00 TS -16.1514 175.884 main 223 200 P_______P___P_ SH071993 -16.1849 175.985 XX 82 -5 -16.0845 175.683 70 965 -16.1849 175.985 TC 82 7 101
1992358S07161 1993 132 SP MM KINA 1993-01-02 00:00:00 TS -16.2333 176.267 main 193 153 O_______O___O_ jtwc_sh SH071993 -16.3000 176.400 XX 85 -5 -16.1000 176.000 70 965 -16.3000 176.400 TC 85 9 102
1992358S07161 1993 132 SP MM KINA 1993-01-02 03:00:00 TS -16.3461 176.804 main 153 113 P_______P___P_ SH071993 -16.4275 176.843 XX 87 -5 -16.1833 176.728 72 962 -16.4275 176.843 TC 87 11 106
1992358S07161 1993 132 SP MM KINA 1993-01-02 06:00:00 TS -16.5333 177.367 main 112 70 O_______O___O_ jtwc_sh SH071993 -16.6000 177.300 XX 90 -5 -16.4000 177.500 75 960 -16.6000 177.300 TC 90 11 117
1992358S07161 1993 132 SP MM KINA 1993-01-02 09:00:00 TS -16.8297 177.805 main 70 33 P_______P___P_ SH071993 -16.8274 177.743 XX 92 -5 -16.8344 177.930 77 957 -16.8274 177.743 TC 92 10 127
1992358S07161 1993 132 SP MM KINA 1993-01-02 12:00:00 TS -17.1667 178.233 main 22 15 O_______O___O_ jtwc_sh SH071993 -17.1000 178.200 XX 95 -5 -17.3000 178.300 80 955 -17.1000 178.200 TC 95 11 125
1992358S07161 1993 132 SP MM KINA 1993-01-02 15:00:00 TS -17.4399 178.733 main 24 23 P_______P___P_ SH071993 -17.3774 178.685 XX 95 -5 -17.5650 178.828 80 955 -17.3774 178.685 TC 95 11 120
1992358S07161 1993 132 SP MM KINA 1993-01-02 18:00:00 TS -17.7333 179.267 main 74 71 O_______O___O_ jtwc_sh SH071993 -17.7000 179.200 XX 95 -5 -17.8000 179.400 80 955 -17.7000 179.200 TC 95 12 123
1992358S07161 1993 132 SP MM KINA 1993-01-02 21:00:00 TS -18.0990 179.804 main 116 116 P_______P___P_ SH071993 -18.0848 179.728 XX 92 -5 -18.1274 179.958 80 955 -18.0848 179.728 TC 92 13 126
1992358S07161 1993 132 SP MM KINA 1993-01-03 00:00:00 TS -18.5000 180.367 main 184 184 O_______O___O_ jtwc_sh SH071993 -18.5000 -179.700 XX 90 -5 -18.5000 -179.500 80 955 -18.5000 -179.700 TC 90 13 126
1992358S07161 1993 132 SP MM KINA 1993-01-03 03:00:00 TS -18.8697 180.937 main 248 248 P_______P___P_ SH071993 -18.8773 -179.072 XX 87 -5 -18.8543 -179.044 77 957 -18.8773 -179.072 TC 87 14 125
1992358S07161 1993 132 SP MM KINA 1993-01-03 06:00:00 TS -19.3000 181.567 main 332 332 O_______O___O_ jtwc_sh SH071993 -19.3000 -178.400 XX 85 -5 -19.3000 -178.500 75 960 -19.3000 -178.400 TC 85 16 127
1992358S07161 1993 132 SP MM KINA 1993-01-03 09:00:00 TS -19.8486 182.316 main 420 420 P_______P___P_ SH071993 -19.8124 -177.700 XX 82 -5 -19.9209 -177.651 75 960 -19.8124 -177.700 TC 82 18 130
1992358S07161 1993 132 SP MM KINA 1993-01-03 12:00:00 TS -20.4667 183.067 main 533 533 O_______O___O_ jtwc_sh SH071993 -20.4000 -177.000 80 -1 -20.6000 -176.800 75 960 -20.4000 -177.000 TC 80 18 134
1992358S07161 1993 132 SP MM KINA 1993-01-03 15:00:00 TS -21.1020 183.685 main 621 621 P_______P___P_ SH071993 -21.0421 -176.350 77 -1 -21.2218 -176.247 72 962 -21.0421 -176.350 TC 77 17 139
1992358S07161 1993 132 SP MM KINA 1993-01-03 18:00:00 TS -21.7333 184.267 main 710 710 O_______O___O_ jtwc_sh SH071993 -21.7000 -175.700 75 -1 -21.8000 -175.800 70 965 -21.7000 -175.700 TC 75 17 137
1992358S07161 1993 132 SP MM KINA 1993-01-03 21:00:00 TS -22.3099 184.906 main 799 799 P_______P___P_ SH071993 -22.2924 -174.999 70 -1 -22.3450 -175.285 67 967 -22.2924 -174.999 TC 70 16 134
1992358S07161 1993 132 SP MM KINA 1993-01-04 00:00:00 TS -22.8667 185.533 main 888 888 O_______O___O_ jtwc_sh SH071993 -22.9000 -174.300 65 -1 -22.8000 -174.800 65 970 -22.9000 -174.300 TC 65 16 136
1992358S07161 1993 132 SP MM KINA 1993-01-04 03:00:00 TS -23.4327 186.081 main 970 970 P_______P___P_ SH071993 -23.5771 -173.642 62 -1 -23.1437 -174.474 62 972 -23.5771 -173.642 TC 62 15 137
1992358S07161 1993 132 SP MM KINA 1993-01-04 06:00:00 TS -24.0000 186.667 main 1059 1059 O_______O___O_ jtwc_sh SH071993 -24.3000 -173.000 60 -1 -23.4000 -174.000 60 975 -24.3000 -173.000 TC 60 16 133
1992358S07161 1993 132 SP MM KINA 1993-01-04 09:00:00 TS -24.5442 187.406 main 1150 1150 P_______P___P_ SH071993 -24.9825 -172.334 57 -1 -23.6677 -173.114 57 977 -24.9825 -172.334 TC 57 18 129
1992358S07161 1993 132 SP MM KINA 1993-01-04 12:00:00 TS -25.1333 188.200 main 1254 1254 O_______O___O_ jtwc_sh SH071993 -25.8000 -171.700 55 -1 -23.8000 -172.000 55 980 -25.8000 -171.700 TC 55 19 132
1992358S07161 1993 132 SP MM KINA 1993-01-04 15:00:00 TS -25.8151 188.978 main 1347 1347 P_______P___P_ SH071993 -26.8824 -171.120 52 -1 -23.6805 -170.826 52 982 -26.8824 -171.120 TC 52 18 129
1992358S07161 1993 132 SP MM KINA 1993-01-04 18:00:00 TS -26.2600 189.760 main 1413 1413 O_______O___O_ jtwc_sh SH071993 -28.1000 -170.600 50 -1 -23.5000 -169.700 50 985 -28.1000 -170.600 TC 50 15 113
1992358S07161 1993 132 SP MM KINA 1993-01-04 21:00:00 TS -26.3892 190.518 main 1436 1404 P_______P___P_ SH071993 -29.3101 -170.137 45 -1 -23.4683 -168.828 47 986 -29.3101 -170.137 TC 45 16 74
1992358S07161 1993 132 SP MM KINA 1993-01-05 00:00:00 TS -25.8333 191.433 main 1393 1220 O_______O___O_ jtwc_sh SH071993 -30.5000 -169.700 40 -1 -23.5000 -168.000 45 987 -30.5000 -169.700 TC 40 36 38
1992358S07161 1993 132 SP MM KINA 1993-01-05 03:00:00 NR -23.5196 192.970 main 1215 1210 ________P_____ SH071993 -1 -23.5196 -167.030 45 987 TC 32 46
1992358S07161 1993 132 SP MM KINA 1993-01-05 06:00:00 NR -23.6000 194.000 main 1275 1275 ________O_____ -1 -23.6000 -166.000 45 987 19 97
1992358S07161 1993 132 SP MM KINA 1993-01-05 09:00:00 NR -23.7622 195.058 main 1356 1356 ________P_____ -1 -23.7622 -164.942 42 988 20 102
1992358S07161 1993 132 SP MM KINA 1993-01-05 12:00:00 NR -24.0000 196.100 main 1435 1435 ________O_____ -1 -24.0000 -163.900 40 990 19 106
1992358S07161 1993 132 SP MM KINA 1993-01-05 15:00:00 NR -24.2990 197.057 main 1526 1526 ________P_____ -1 -24.2990 -162.943 37 992 18 109
1992358S07161 1993 132 SP MM KINA 1993-01-05 18:00:00 NR -24.6000 198.000 main 1612 1612 ________O_____ -1 -24.6000 -162.000 35 995 18 107
1992358S07161 1993 132 SP MM KINA 1993-01-05 21:00:00 NR -24.8266 198.985 main 1699 1699 ________P_____ -1 -24.8266 -161.015 32 996 19 102
1992358S07161 1993 132 SP MM KINA 1993-01-06 00:00:00 NR -25.0000 200.000 30 997 wellington main 1788 ________O_____ -1 -25.0000 -160.000 30 997 19 101

Digital Typhoon Data and Search

About IBTrACS Database

This database is a web-friendly format of International Best Track Archive for Climate Stewardship (IBTrACS), a global best track data archive curated by NOAA dating back to 1842.

Updated: 2021-10-08